sensor_id;sensor_type;location;lat;lon;timestamp;pressure;altitude;pressure_sealevel;temperature;humidity
56518;BME280;42419;48.760;2.322;2023-01-16T00:00:57;98945.38;;;26.58;35.91
56518;BME280;42419;48.760;2.322;2023-01-16T00:03:23;98929.19;;;26.58;35.71
56518;BME280;42419;48.760;2.322;2023-01-16T00:05:48;98904.06;;;26.48;35.16
56518;BME280;42419;48.760;2.322;2023-01-16T00:08:14;98897.53;;;26.51;35.16
56518;BME280;42419;48.760;2.322;2023-01-16T00:10:39;98897.06;;;26.55;35.39
56518;BME280;42419;48.760;2.322;2023-01-16T00:13:05;98870.06;;;26.55;35.34
56518;BME280;42419;48.760;2.322;2023-01-16T00:15:31;98838.88;;;26.43;35.30
56518;BME280;42419;48.760;2.322;2023-01-16T00:17:56;98852.47;;;26.51;35.56
56518;BME280;42419;48.760;2.322;2023-01-16T00:20:22;98830.06;;;26.51;34.75
56518;BME280;42419;48.760;2.322;2023-01-16T00:22:47;98806.88;;;26.48;34.62
56518;BME280;42419;48.760;2.322;2023-01-16T00:25:13;98794.25;;;26.49;34.64
56518;BME280;42419;48.760;2.322;2023-01-16T00:27:38;98777.50;;;26.45;34.28
56518;BME280;42419;48.760;2.322;2023-01-16T00:30:05;98760.31;;;26.46;34.53
56518;BME280;42419;48.760;2.322;2023-01-16T00:32:31;98741.56;;;26.45;34.88
56518;BME280;42419;48.760;2.322;2023-01-16T00:34:56;98719.88;;;26.37;34.39
56518;BME280;42419;48.760;2.322;2023-01-16T00:37:21;98720.28;;;26.42;33.94
56518;BME280;42419;48.760;2.322;2023-01-16T00:39:47;98692.63;;;26.30;33.80
56518;BME280;42419;48.760;2.322;2023-01-16T00:42:12;98685.34;;;26.40;34.09
56518;BME280;42419;48.760;2.322;2023-01-16T00:44:37;98675.41;;;26.41;33.66
56518;BME280;42419;48.760;2.322;2023-01-16T00:47:03;98639.81;;;26.27;33.71
56518;BME280;42419;48.760;2.322;2023-01-16T00:49:29;98629.13;;;26.35;33.74
56518;BME280;42419;48.760;2.322;2023-01-16T00:51:54;98625.44;;;26.37;33.88
56518;BME280;42419;48.760;2.322;2023-01-16T00:54:22;98596.91;;;26.24;33.33
56518;BME280;42419;48.760;2.322;2023-01-16T00:56:48;98586.84;;;26.26;34.17
56518;BME280;42419;48.760;2.322;2023-01-16T00:59:13;98583.09;;;26.37;33.15
56518;BME280;42419;48.760;2.322;2023-01-16T01:01:38;98568.91;;;26.35;33.87
56518;BME280;42419;48.760;2.322;2023-01-16T01:04:04;98553.56;;;26.35;33.00
56518;BME280;42419;48.760;2.322;2023-01-16T01:06:29;98541.06;;;26.34;33.05
56518;BME280;42419;48.760;2.322;2023-01-16T01:08:55;98509.28;;;26.28;33.27
56518;BME280;42419;48.760;2.322;2023-01-16T01:11:20;98498.38;;;26.30;33.08
56518;BME280;42419;48.760;2.322;2023-01-16T01:13:46;98496.38;;;26.32;32.87
56518;BME280;42419;48.760;2.322;2023-01-16T01:16:12;98482.03;;;26.31;32.54
56518;BME280;42419;48.760;2.322;2023-01-16T01:18:38;98462.28;;;26.31;32.38
56518;BME280;42419;48.760;2.322;2023-01-16T01:21:04;98436.16;;;26.31;32.72
56518;BME280;42419;48.760;2.322;2023-01-16T01:23:29;98423.34;;;26.33;32.38
56518;BME280;42419;48.760;2.322;2023-01-16T01:25:55;98405.31;;;26.34;32.55
56518;BME280;42419;48.760;2.322;2023-01-16T01:28:20;98389.88;;;26.26;32.44
56518;BME280;42419;48.760;2.322;2023-01-16T01:30:46;98371.41;;;26.31;32.39
56518;BME280;42419;48.760;2.322;2023-01-16T01:33:11;98371.41;;;26.31;32.38
56518;BME280;42419;48.760;2.322;2023-01-16T01:35:37;98349.97;;;26.30;32.24
56518;BME280;42419;48.760;2.322;2023-01-16T01:38:02;98306.34;;;26.17;32.42
56518;BME280;42419;48.760;2.322;2023-01-16T01:40:28;98312.31;;;26.28;32.08
56518;BME280;42419;48.760;2.322;2023-01-16T01:42:54;98307.78;;;26.29;32.35
56518;BME280;42419;48.760;2.322;2023-01-16T01:45:27;98284.38;;;26.29;31.70
56518;BME280;42419;48.760;2.322;2023-01-16T01:53:10;98204.97;;;26.06;31.87
56518;BME280;42419;48.760;2.322;2023-01-16T01:55:38;98214.16;;;26.21;31.94
56518;BME280;42419;48.760;2.322;2023-01-16T01:58:06;98213.00;;;26.24;31.95
56518;BME280;42419;48.760;2.322;2023-01-16T02:00:31;98200.03;;;26.27;32.00
56518;BME280;42419;48.760;2.322;2023-01-16T02:03:07;98187.56;;;26.26;32.05
56518;BME280;42419;48.760;2.322;2023-01-16T02:05:37;98184.84;;;26.26;31.86
56518;BME280;42419;48.760;2.322;2023-01-16T02:08:12;98168.66;;;26.26;31.60
56518;BME280;42419;48.760;2.322;2023-01-16T02:10:41;98141.69;;;26.26;31.52
56518;BME280;42419;48.760;2.322;2023-01-16T02:13:08;98136.44;;;26.25;31.57
56518;BME280;42419;48.760;2.322;2023-01-16T02:15:37;98118.41;;;26.25;31.85
56518;BME280;42419;48.760;2.322;2023-01-16T02:18:23;98122.09;;;26.24;31.55
56518;BME280;42419;48.760;2.322;2023-01-16T02:24:14;98079.78;;;26.25;31.54
56518;BME280;42419;48.760;2.322;2023-01-16T02:26:58;98055.69;;;26.23;31.43
56518;BME280;42419;48.760;2.322;2023-01-16T02:29:34;98049.28;;;26.24;31.61
56518;BME280;42419;48.760;2.322;2023-01-16T02:32:20;98035.78;;;26.24;31.12
56518;BME280;42419;48.760;2.322;2023-01-16T02:35:30;98038.47;;;26.24;31.61
56518;BME280;42419;48.760;2.322;2023-01-16T02:43:15;97956.22;;;26.04;31.22
56518;BME280;42419;48.760;2.322;2023-01-16T02:45:57;97972.41;;;26.20;31.27
56518;BME280;42419;48.760;2.322;2023-01-16T02:48:34;97960.25;;;26.24;31.01
56518;BME280;42419;48.760;2.322;2023-01-16T02:51:06;97949.31;;;26.26;31.33
56518;BME280;42419;48.760;2.322;2023-01-16T02:54:00;97939.72;;;26.23;31.16
56518;BME280;42419;48.760;2.322;2023-01-16T02:56:33;97924.03;;;26.19;31.36
56518;BME280;42419;48.760;2.322;2023-01-16T02:59:01;97924.19;;;26.25;31.62
56518;BME280;42419;48.760;2.322;2023-01-16T03:01:27;97917.63;;;26.28;31.04
56518;BME280;42419;48.760;2.322;2023-01-16T03:06:43;97902.13;;;26.30;31.28
56518;BME280;42419;48.760;2.322;2023-01-16T03:14:28;97865.69;;;26.34;30.71
56518;BME280;42419;48.760;2.322;2023-01-16T03:17:08;97855.09;;;26.32;30.71
56518;BME280;42419;48.760;2.322;2023-01-16T03:19:48;97852.72;;;26.38;30.56
56518;BME280;42419;48.760;2.322;2023-01-16T03:25:18;97801.47;;;26.21;30.78
56518;BME280;42419;48.760;2.322;2023-01-16T03:28:03;97804.66;;;26.33;30.56
56518;BME280;42419;48.760;2.322;2023-01-16T03:30:40;97822.00;;;26.47;30.70
56518;BME280;42419;48.760;2.322;2023-01-16T03:33:30;97820.81;;;26.49;30.34
56518;BME280;42419;48.760;2.322;2023-01-16T03:36:04;97821.66;;;26.50;30.13
56518;BME280;42419;48.760;2.322;2023-01-16T03:38:36;97798.25;;;26.34;30.62
56518;BME280;42419;48.760;2.322;2023-01-16T03:41:05;97791.53;;;26.30;30.11
56518;BME280;42419;48.760;2.322;2023-01-16T03:43:36;97832.47;;;26.50;30.15
56518;BME280;42419;48.760;2.322;2023-01-16T03:46:15;97825.53;;;26.47;30.04
56518;BME280;42419;48.760;2.322;2023-01-16T03:48:45;97813.25;;;26.45;30.57
56518;BME280;42419;48.760;2.322;2023-01-16T03:51:19;97821.34;;;26.45;29.97
56518;BME280;42419;48.760;2.322;2023-01-16T03:53:57;97803.81;;;26.41;29.86
56518;BME280;42419;48.760;2.322;2023-01-16T03:58:57;97795.22;;;26.45;29.91
56518;BME280;42419;48.760;2.322;2023-01-16T04:01:37;97723.94;;;26.07;29.87
56518;BME280;42419;48.760;2.322;2023-01-16T04:06:49;97756.94;;;26.42;29.65
56518;BME280;42419;48.760;2.322;2023-01-16T04:11:56;97713.94;;;26.40;30.05
56518;BME280;42419;48.760;2.322;2023-01-16T04:14:23;97697.91;;;26.39;30.46
56518;BME280;42419;48.760;2.322;2023-01-16T04:16:50;97704.00;;;26.41;29.97
56518;BME280;42419;48.760;2.322;2023-01-16T04:19:17;97687.97;;;26.39;30.33
56518;BME280;42419;48.760;2.322;2023-01-16T04:21:45;97662.38;;;26.27;29.89
56518;BME280;42419;48.760;2.322;2023-01-16T04:24:11;97678.19;;;26.38;29.82
56518;BME280;42419;48.760;2.322;2023-01-16T04:26:37;97668.06;;;26.40;29.93
56518;BME280;42419;48.760;2.322;2023-01-16T04:29:02;97650.06;;;26.32;30.11
56518;BME280;42419;48.760;2.322;2023-01-16T04:31:27;97658.97;;;26.41;30.18
56518;BME280;42419;48.760;2.322;2023-01-16T04:33:53;97609.97;;;26.21;29.78
56518;BME280;42419;48.760;2.322;2023-01-16T04:36:19;97646.13;;;26.43;29.87
56518;BME280;42419;48.760;2.322;2023-01-16T04:38:45;97626.28;;;26.36;29.90
56518;BME280;42419;48.760;2.322;2023-01-16T04:41:10;97630.13;;;26.42;30.09
56518;BME280;42419;48.760;2.322;2023-01-16T04:43:35;97600.13;;;26.28;29.76
56518;BME280;42419;48.760;2.322;2023-01-16T04:46:01;97604.66;;;26.44;29.84
56518;BME280;42419;48.760;2.322;2023-01-16T04:48:26;97584.59;;;26.39;30.07
56518;BME280;42419;48.760;2.322;2023-01-16T04:50:51;97580.19;;;26.46;29.95
56518;BME280;42419;48.760;2.322;2023-01-16T04:53:17;97573.59;;;26.48;29.69
56518;BME280;42419;48.760;2.322;2023-01-16T04:55:42;97552.16;;;26.47;29.71
56518;BME280;42419;48.760;2.322;2023-01-16T04:58:07;97538.69;;;26.47;29.82
56518;BME280;42419;48.760;2.322;2023-01-16T05:00:33;97528.25;;;26.44;29.92
56518;BME280;42419;48.760;2.322;2023-01-16T05:02:58;97525.00;;;26.48;29.69
56518;BME280;42419;48.760;2.322;2023-01-16T05:05:24;97508.81;;;26.48;29.39
56518;BME280;42419;48.760;2.322;2023-01-16T05:07:49;97492.72;;;26.40;29.79
56518;BME280;42419;48.760;2.322;2023-01-16T05:10:35;97454.00;;;26.25;29.72
56518;BME280;42419;48.760;2.322;2023-01-16T05:13:00;97486.47;;;26.40;29.59
56518;BME280;42419;48.760;2.322;2023-01-16T05:15:25;97472.59;;;26.43;29.64
56518;BME280;42419;48.760;2.322;2023-01-16T05:17:51;97462.31;;;26.46;30.16
56518;BME280;42419;48.760;2.322;2023-01-16T05:20:16;97467.88;;;26.45;29.38
56518;BME280;42419;48.760;2.322;2023-01-16T05:22:41;97448.88;;;26.38;29.28
56518;BME280;42419;48.760;2.322;2023-01-16T05:25:07;97453.38;;;26.46;29.59
56518;BME280;42419;48.760;2.322;2023-01-16T05:27:32;97446.31;;;26.45;29.41
56518;BME280;42419;48.760;2.322;2023-01-16T05:29:57;97441.91;;;26.44;29.55
56518;BME280;42419;48.760;2.322;2023-01-16T05:32:23;97425.34;;;26.32;29.69
56518;BME280;42419;48.760;2.322;2023-01-16T05:34:48;97436.53;;;26.44;29.30
56518;BME280;42419;48.760;2.322;2023-01-16T05:37:13;97407.50;;;26.46;29.51
56518;BME280;42419;48.760;2.322;2023-01-16T05:39:39;97378.25;;;26.34;29.65
56518;BME280;42419;48.760;2.322;2023-01-16T05:42:04;97400.81;;;26.42;29.71
56518;BME280;42419;48.760;2.322;2023-01-16T05:44:46;97402.00;;;26.39;29.08
56518;BME280;42419;48.760;2.322;2023-01-16T05:47:11;97388.97;;;26.43;29.33
56518;BME280;42419;48.760;2.322;2023-01-16T05:49:37;97387.31;;;26.42;28.98
56518;BME280;42419;48.760;2.322;2023-01-16T05:52:02;97359.94;;;26.30;29.06
56518;BME280;42419;48.760;2.322;2023-01-16T05:54:27;97380.41;;;26.39;29.49
56518;BME280;42419;48.760;2.322;2023-01-16T05:56:53;97376.41;;;26.35;29.29
56518;BME280;42419;48.760;2.322;2023-01-16T05:59:18;97371.69;;;26.37;29.41
56518;BME280;42419;48.760;2.322;2023-01-16T06:01:43;97367.09;;;26.38;28.93
56518;BME280;42419;48.760;2.322;2023-01-16T06:04:08;97358.81;;;26.39;29.49
56518;BME280;42419;48.760;2.322;2023-01-16T06:06:34;97344.09;;;26.27;29.38
56518;BME280;42419;48.760;2.322;2023-01-16T06:08:59;97351.75;;;26.38;29.55
56518;BME280;42419;48.760;2.322;2023-01-16T06:11:24;97355.50;;;26.37;29.11
56518;BME280;42419;48.760;2.322;2023-01-16T06:13:50;97344.72;;;26.37;29.41
56518;BME280;42419;48.760;2.322;2023-01-16T06:16:15;97333.63;;;26.32;29.57
56518;BME280;42419;48.760;2.322;2023-01-16T06:18:40;97342.56;;;26.32;29.20
56518;BME280;42419;48.760;2.322;2023-01-16T06:21:06;97274.28;;;25.95;29.59
56518;BME280;42419;48.760;2.322;2023-01-16T06:23:31;97335.94;;;26.35;29.35
56518;BME280;42419;48.760;2.322;2023-01-16T06:25:56;97329.53;;;26.36;29.35
56518;BME280;42419;48.760;2.322;2023-01-16T06:28:21;97312.34;;;26.37;29.44
56518;BME280;42419;48.760;2.322;2023-01-16T06:30:50;97317.06;;;26.35;28.98
56518;BME280;42419;48.760;2.322;2023-01-16T06:33:16;97315.75;;;26.31;29.18
56518;BME280;42419;48.760;2.322;2023-01-16T06:35:42;97306.94;;;26.37;29.36
56518;BME280;42419;48.760;2.322;2023-01-16T06:38:07;97275.34;;;26.23;29.25
56518;BME280;42419;48.760;2.322;2023-01-16T06:40:33;97251.06;;;26.23;29.83
56518;BME280;42419;48.760;2.322;2023-01-16T06:42:58;97282.75;;;26.44;29.06
56518;BME280;42419;48.760;2.322;2023-01-16T06:45:24;97269.53;;;26.49;29.30
56518;BME280;42419;48.760;2.322;2023-01-16T06:47:53;97271.66;;;26.53;29.46
56518;BME280;42419;48.760;2.322;2023-01-16T06:50:18;97248.69;;;26.57;28.93
56518;BME280;42419;48.760;2.322;2023-01-16T06:52:44;97223.31;;;26.37;29.18
56518;BME280;42419;48.760;2.322;2023-01-16T06:55:09;97243.28;;;26.57;29.24
56518;BME280;42419;48.760;2.322;2023-01-16T06:57:37;97262.53;;;26.69;29.12
56518;BME280;42419;48.760;2.322;2023-01-16T07:00:03;97189.53;;;26.41;29.64
56518;BME280;42419;48.760;2.322;2023-01-16T07:02:29;97228.09;;;26.71;29.64
56518;BME280;42419;48.760;2.322;2023-01-16T07:04:54;97227.44;;;26.69;29.14
56518;BME280;42419;48.760;2.322;2023-01-16T07:07:19;97242.84;;;26.68;29.03
56518;BME280;42419;48.760;2.322;2023-01-16T07:09:45;97224.56;;;26.70;29.18
56518;BME280;42419;48.760;2.322;2023-01-16T07:12:10;97196.84;;;26.62;29.20
56518;BME280;42419;48.760;2.322;2023-01-16T07:14:35;97205.69;;;26.70;29.40
56518;BME280;42419;48.760;2.322;2023-01-16T07:17:19;97193.88;;;26.71;29.57
56518;BME280;42419;48.760;2.322;2023-01-16T07:20:14;97183.44;;;26.68;29.55
56518;BME280;42419;48.760;2.322;2023-01-16T07:22:58;97173.09;;;26.72;29.39
56518;BME280;42419;48.760;2.322;2023-01-16T07:25:30;97167.88;;;26.70;29.72
56518;BME280;42419;48.760;2.322;2023-01-16T07:27:58;97164.34;;;26.70;29.63
56518;BME280;42419;48.760;2.322;2023-01-16T07:30:24;97159.97;;;26.69;29.04
56518;BME280;42419;48.760;2.322;2023-01-16T07:32:50;97137.47;;;26.62;29.39
56518;BME280;42419;48.760;2.322;2023-01-16T07:35:15;97112.66;;;26.52;29.52
56518;BME280;42419;48.760;2.322;2023-01-16T07:37:40;97119.63;;;26.61;29.52
56518;BME280;42419;48.760;2.322;2023-01-16T07:40:08;97120.44;;;26.61;29.10
56518;BME280;42419;48.760;2.322;2023-01-16T07:42:33;97098.53;;;26.50;29.30
56518;BME280;42419;48.760;2.322;2023-01-16T07:44:59;97101.75;;;26.60;28.91
56518;BME280;42419;48.760;2.322;2023-01-16T07:47:24;97089.94;;;26.61;29.17
56518;BME280;42419;48.760;2.322;2023-01-16T07:49:49;97064.75;;;26.54;28.98
56518;BME280;42419;48.760;2.322;2023-01-16T07:52:15;97075.53;;;26.54;28.72
56518;BME280;42419;48.760;2.322;2023-01-16T07:54:42;97006.22;;;26.18;28.89
56518;BME280;42419;48.760;2.322;2023-01-16T07:57:07;97064.19;;;26.58;29.11
56518;BME280;42419;48.760;2.322;2023-01-16T07:59:32;97063.97;;;26.60;28.98
56518;BME280;42419;48.760;2.322;2023-01-16T08:01:58;97045.66;;;26.55;28.75
56518;BME280;42419;48.760;2.322;2023-01-16T08:04:23;97041.34;;;26.61;28.77
56518;BME280;42419;48.760;2.322;2023-01-16T08:06:48;97043.88;;;26.62;28.72
56518;BME280;42419;48.760;2.322;2023-01-16T08:09:14;97044.91;;;26.61;28.91
56518;BME280;42419;48.760;2.322;2023-01-16T08:11:39;97029.72;;;26.60;28.63
56518;BME280;42419;48.760;2.322;2023-01-16T08:14:06;97024.06;;;26.55;28.62
56518;BME280;42419;48.760;2.322;2023-01-16T08:16:32;97012.50;;;26.61;28.45
56518;BME280;42419;48.760;2.322;2023-01-16T08:18:58;96997.16;;;26.62;28.53
56518;BME280;42419;48.760;2.322;2023-01-16T08:21:23;96999.84;;;26.62;28.21
56518;BME280;42419;48.760;2.322;2023-01-16T08:23:49;97003.22;;;26.64;28.58
56518;BME280;42419;48.760;2.322;2023-01-16T08:26:14;96990.53;;;26.64;28.50
56518;BME280;42419;48.760;2.322;2023-01-16T08:28:40;96990.75;;;26.63;28.51
56518;BME280;42419;48.760;2.322;2023-01-16T08:31:10;97002.56;;;26.62;28.55
56518;BME280;42419;48.760;2.322;2023-01-16T08:33:39;96993.81;;;26.60;28.53
56518;BME280;42419;48.760;2.322;2023-01-16T08:36:06;96987.19;;;26.62;28.10
56518;BME280;42419;48.760;2.322;2023-01-16T08:38:32;96984.50;;;26.62;28.36
56518;BME280;42419;48.760;2.322;2023-01-16T08:40:57;97009.63;;;26.63;28.10
56518;BME280;42419;48.760;2.322;2023-01-16T08:43:23;96990.53;;;26.64;27.89
56518;BME280;42419;48.760;2.322;2023-01-16T08:46:18;97001.53;;;26.63;28.15
56518;BME280;42419;48.760;2.322;2023-01-16T08:49:04;96972.94;;;26.47;28.08
56518;BME280;42419;48.760;2.322;2023-01-16T08:51:48;96994.38;;;26.55;28.18
56518;BME280;42419;48.760;2.322;2023-01-16T08:54:14;96979.38;;;26.46;27.69
56518;BME280;42419;48.760;2.322;2023-01-16T08:56:39;96970.06;;;26.49;28.20
56518;BME280;42419;48.760;2.322;2023-01-16T08:59:09;96972.94;;;26.47;27.87
56518;BME280;42419;48.760;2.322;2023-01-16T09:01:36;96995.94;;;26.64;27.90
56518;BME280;42419;48.760;2.322;2023-01-16T09:04:02;96994.63;;;26.60;28.12
56518;BME280;42419;48.760;2.322;2023-01-16T09:06:27;97007.19;;;26.68;27.80
56518;BME280;42419;48.760;2.322;2023-01-16T09:08:52;97013.03;;;26.71;27.87
56518;BME280;42419;48.760;2.322;2023-01-16T09:11:18;96985.94;;;26.58;27.56
56518;BME280;42419;48.760;2.322;2023-01-16T09:14:02;97020.72;;;26.74;27.91
56518;BME280;42419;48.760;2.322;2023-01-16T09:16:27;97017.00;;;26.75;27.69
56518;BME280;42419;48.760;2.322;2023-01-16T09:18:53;97023.88;;;26.78;27.80
56518;BME280;42419;48.760;2.322;2023-01-16T09:21:18;97013.47;;;26.75;27.77
56518;BME280;42419;48.760;2.322;2023-01-16T09:23:44;97036.16;;;26.80;27.51
56518;BME280;42419;48.760;2.322;2023-01-16T09:26:10;97048.41;;;26.83;27.30
56518;BME280;42419;48.760;2.322;2023-01-16T09:28:36;97054.25;;;26.87;27.57
56518;BME280;42419;48.760;2.322;2023-01-16T09:31:01;97063.88;;;26.89;27.17
56518;BME280;42419;48.760;2.322;2023-01-16T09:33:27;97044.25;;;26.80;27.49
56518;BME280;42419;48.760;2.322;2023-01-16T09:35:52;97088.44;;;26.94;27.31
56518;BME280;42419;48.760;2.322;2023-01-16T09:38:17;97105.28;;;26.96;27.38
56518;BME280;42419;48.760;2.322;2023-01-16T09:40:45;97121.72;;;27.01;27.19
56518;BME280;42419;48.760;2.322;2023-01-16T09:43:34;97128.63;;;27.04;27.22
56518;BME280;42419;48.760;2.322;2023-01-16T09:46:05;97137.34;;;27.06;27.64
56518;BME280;42419;48.760;2.322;2023-01-16T09:48:33;97143.03;;;27.11;26.92
56518;BME280;42419;48.760;2.322;2023-01-16T09:51:38;97161.53;;;27.14;26.86
56518;BME280;42419;48.760;2.322;2023-01-16T09:54:10;97176.53;;;27.16;27.37
56518;BME280;42419;48.760;2.322;2023-01-16T09:56:58;97165.28;;;27.13;27.15
56518;BME280;42419;48.760;2.322;2023-01-16T09:59:49;97172.00;;;27.23;26.80
56518;BME280;42419;48.760;2.322;2023-01-16T10:02:24;97167.84;;;27.21;26.94
56518;BME280;42419;48.760;2.322;2023-01-16T10:04:51;97188.47;;;27.29;26.89
56518;BME280;42419;48.760;2.322;2023-01-16T10:13:00;97245.28;;;27.35;26.49
56518;BME280;42419;48.760;2.322;2023-01-16T10:15:47;97252.28;;;27.30;26.82
56518;BME280;42419;48.760;2.322;2023-01-16T10:26:45;97293.72;;;27.37;26.65
56518;BME280;42419;48.760;2.322;2023-01-16T10:29:22;97308.25;;;27.36;26.89
56518;BME280;42419;48.760;2.322;2023-01-16T10:34:35;97309.59;;;27.25;26.22
56518;BME280;42419;48.760;2.322;2023-01-16T10:37:05;97350.84;;;27.34;26.47
56518;BME280;42419;48.760;2.322;2023-01-16T10:39:33;97354.97;;;27.30;26.65
56518;BME280;42419;48.760;2.322;2023-01-16T10:42:09;97376.38;;;27.31;26.36
56518;BME280;42419;48.760;2.322;2023-01-16T10:47:38;97397.78;;;27.33;26.52
56518;BME280;42419;48.760;2.322;2023-01-16T10:50:23;97396.97;;;27.32;26.86
56518;BME280;42419;48.760;2.322;2023-01-16T10:52:49;97396.69;;;27.27;26.45
56518;BME280;42419;48.760;2.322;2023-01-16T10:55:15;97411.69;;;27.30;26.67
56518;BME280;42419;48.760;2.322;2023-01-16T10:57:46;97423.53;;;27.29;26.67
56518;BME280;42419;48.760;2.322;2023-01-16T11:00:42;97432.66;;;27.28;26.26
56518;BME280;42419;48.760;2.322;2023-01-16T11:03:15;97378.75;;;26.90;26.67
56518;BME280;42419;48.760;2.322;2023-01-16T11:05:42;97447.38;;;27.25;26.39
56518;BME280;42419;48.760;2.322;2023-01-16T11:08:16;97447.38;;;27.25;26.45
56518;BME280;42419;48.760;2.322;2023-01-16T11:10:45;97469.00;;;27.25;26.78
56518;BME280;42419;48.760;2.322;2023-01-16T11:13:14;97469.00;;;27.25;26.24
56518;BME280;42419;48.760;2.322;2023-01-16T11:18:58;97493.84;;;27.20;26.42
56518;BME280;42419;48.760;2.322;2023-01-16T11:21:28;97509.22;;;27.20;26.68
56518;BME280;42419;48.760;2.322;2023-01-16T11:24:20;97499.09;;;27.22;26.44
56518;BME280;42419;48.760;2.322;2023-01-16T11:26:48;97491.53;;;27.17;26.57
56518;BME280;42419;48.760;2.322;2023-01-16T11:29:16;97524.03;;;27.24;26.67
56518;BME280;42419;48.760;2.322;2023-01-16T11:31:50;97534.19;;;27.22;26.49
56518;BME280;42419;48.760;2.322;2023-01-16T11:34:19;97535.50;;;27.26;26.35
56518;BME280;42419;48.760;2.322;2023-01-16T11:36:46;97543.22;;;27.29;26.43
56518;BME280;42419;48.760;2.322;2023-01-16T11:39:19;97558.22;;;27.32;26.26
56518;BME280;42419;48.760;2.322;2023-01-16T11:41:50;97553.59;;;27.26;26.36
56518;BME280;42419;48.760;2.322;2023-01-16T11:47:02;97574.44;;;27.32;26.40
56518;BME280;42419;48.760;2.322;2023-01-16T11:49:36;97585.78;;;27.27;26.38
56518;BME280;42419;48.760;2.322;2023-01-16T11:52:03;97604.38;;;27.30;26.21
56518;BME280;42419;48.760;2.322;2023-01-16T11:54:31;97596.44;;;27.29;26.19
56518;BME280;42419;48.760;2.322;2023-01-16T11:59:46;97614.97;;;27.32;26.22
56518;BME280;42419;48.760;2.322;2023-01-16T12:10:49;97631.34;;;27.15;26.10
56518;BME280;42419;48.760;2.322;2023-01-16T12:13:23;97662.28;;;27.28;26.38
56518;BME280;42419;48.760;2.322;2023-01-16T12:30:17;97712.00;;;27.18;26.26
56518;BME280;42419;48.760;2.322;2023-01-16T12:35:59;97723.84;;;27.17;26.17
56518;BME280;42419;48.760;2.322;2023-01-16T12:38:36;97721.78;;;27.19;26.06
56518;BME280;42419;48.760;2.322;2023-01-16T12:41:22;97733.06;;;27.23;26.33
56518;BME280;42419;48.760;2.322;2023-01-16T12:44:50;97753.50;;;27.26;26.13
56518;BME280;42419;48.760;2.322;2023-01-16T12:50:22;97767.84;;;27.26;26.24
56518;BME280;42419;48.760;2.322;2023-01-16T12:53:12;97779.69;;;27.25;26.23
56518;BME280;42419;48.760;2.322;2023-01-16T12:58:39;97740.34;;;27.00;25.74
56518;BME280;42419;48.760;2.322;2023-01-16T13:01:24;97797.38;;;27.28;26.43
56518;BME280;42419;48.760;2.322;2023-01-16T13:04:15;97816.13;;;27.29;25.86
56518;BME280;42419;48.760;2.322;2023-01-16T13:06:53;97816.97;;;27.30;26.12
56518;BME280;42419;48.760;2.322;2023-01-16T13:09:38;97812.41;;;27.30;26.16
56518;BME280;42419;48.760;2.322;2023-01-16T13:12:26;97815.09;;;27.30;25.97
56518;BME280;42419;48.760;2.322;2023-01-16T13:15:20;97831.31;;;27.30;25.83
56518;BME280;42419;48.760;2.322;2023-01-16T13:17:56;97823.38;;;27.29;25.90
56518;BME280;42419;48.760;2.322;2023-01-16T13:20:25;97820.19;;;27.25;26.08
56518;BME280;42419;48.760;2.322;2023-01-16T13:22:58;97852.22;;;27.36;25.83
56518;BME280;42419;48.760;2.322;2023-01-16T13:25:31;97841.06;;;27.39;25.75
56518;BME280;42419;48.760;2.322;2023-01-16T13:28:02;97861.31;;;27.43;25.00
56518;BME280;42419;48.760;2.322;2023-01-16T13:30:31;97857.59;;;27.44;25.96
56518;BME280;42419;48.760;2.322;2023-01-16T13:33:03;97852.34;;;27.43;25.37
56518;BME280;42419;48.760;2.322;2023-01-16T13:35:54;97868.22;;;27.46;25.52
56518;BME280;42419;48.760;2.322;2023-01-16T13:38:46;97872.97;;;27.44;25.82
56518;BME280;42419;48.760;2.322;2023-01-16T13:41:25;97885.16;;;27.40;25.82
56518;BME280;42419;48.760;2.322;2023-01-16T13:46:37;97888.91;;;27.31;25.96
56518;BME280;42419;48.760;2.322;2023-01-16T13:49:05;97906.97;;;27.30;25.72
56518;BME280;42419;48.760;2.322;2023-01-16T13:51:40;97903.09;;;27.24;26.05
56518;BME280;42419;48.760;2.322;2023-01-16T13:54:13;97917.47;;;27.25;26.21
56518;BME280;42419;48.760;2.322;2023-01-16T13:56:40;97906.81;;;27.23;26.08
56518;BME280;42419;48.760;2.322;2023-01-16T13:59:08;97926.59;;;27.24;25.89
56518;BME280;42419;48.760;2.322;2023-01-16T14:04:27;97919.69;;;27.21;25.59
56518;BME280;42419;48.760;2.322;2023-01-16T14:06:57;97927.25;;;27.26;26.14
56518;BME280;42419;48.760;2.322;2023-01-16T14:10:06;97931.09;;;27.32;25.34
56518;BME280;42419;48.760;2.322;2023-01-16T14:15:14;97949.69;;;27.35;25.66
56518;BME280;42419;48.760;2.322;2023-01-16T14:26:04;97975.19;;;27.32;25.62
56518;BME280;42419;48.760;2.322;2023-01-16T14:28:32;97982.28;;;27.33;25.61
56518;BME280;42419;48.760;2.322;2023-01-16T14:30:59;97979.56;;;27.33;25.75
56518;BME280;42419;48.760;2.322;2023-01-16T14:33:26;97974.16;;;27.33;25.79
56518;BME280;42419;48.760;2.322;2023-01-16T14:35:54;97981.44;;;27.33;25.54
56518;BME280;42419;48.760;2.322;2023-01-16T14:38:24;97986.00;;;27.32;25.66
56518;BME280;42419;48.760;2.322;2023-01-16T14:40:57;97979.75;;;27.32;25.57
56518;BME280;42419;48.760;2.322;2023-01-16T14:50:03;98015.59;;;27.26;25.76
56518;BME280;42419;48.760;2.322;2023-01-16T14:52:56;98028.41;;;27.23;25.86
56518;BME280;42419;48.760;2.322;2023-01-16T14:58:08;98037.50;;;27.22;25.75
56518;BME280;42419;48.760;2.322;2023-01-16T15:00:36;98038.56;;;27.21;25.89
56518;BME280;42419;48.760;2.322;2023-01-16T15:03:14;98043.78;;;27.23;25.78
56518;BME280;42419;48.760;2.322;2023-01-16T15:05:50;98045.47;;;27.24;25.76
56518;BME280;42419;48.760;2.322;2023-01-16T15:08:21;98050.38;;;27.20;25.30
56518;BME280;42419;48.760;2.322;2023-01-16T15:10:50;98055.78;;;27.20;25.56
56518;BME280;42419;48.760;2.322;2023-01-16T15:16:00;98046.34;;;27.16;25.85
56518;BME280;42419;48.760;2.322;2023-01-16T15:18:26;98060.84;;;27.15;25.75